sensor_id;sensor_type;location;lat;lon;timestamp;P1;durP1;ratioP1;P2;durP2;ratioP2
74344;SDS011;62776;50.518;6.732;2023-12-22T00:01:17;3.38;;;2.10;;
74344;SDS011;62776;50.518;6.732;2023-12-22T00:04:04;2.88;;;1.80;;
74344;SDS011;62776;50.518;6.732;2023-12-22T00:06:51;4.75;;;2.08;;
74344;SDS011;62776;50.518;6.732;2023-12-22T00:09:40;3.45;;;1.92;;
74344;SDS011;62776;50.518;6.732;2023-12-22T00:12:26;4.20;;;1.83;;
74344;SDS011;62776;50.518;6.732;2023-12-22T00:15:13;8.63;;;3.17;;
74344;SDS011;62776;50.518;6.732;2023-12-22T00:17:59;4.03;;;1.90;;
74344;SDS011;62776;50.518;6.732;2023-12-22T00:20:56;4.45;;;2.08;;
74344;SDS011;62776;50.518;6.732;2023-12-22T00:23:42;3.90;;;1.88;;
74344;SDS011;62776;50.518;6.732;2023-12-22T00:26:28;6.85;;;2.58;;
74344;SDS011;62776;50.518;6.732;2023-12-22T00:29:18;5.28;;;2.95;;
74344;SDS011;62776;50.518;6.732;2023-12-22T00:32:08;4.40;;;2.40;;
74344;SDS011;62776;50.518;6.732;2023-12-22T00:34:54;5.18;;;3.03;;
74344;SDS011;62776;50.518;6.732;2023-12-22T00:37:43;4.50;;;2.08;;
74344;SDS011;62776;50.518;6.732;2023-12-22T00:40:29;9.73;;;3.17;;
74344;SDS011;62776;50.518;6.732;2023-12-22T00:43:15;7.53;;;2.30;;
74344;SDS011;62776;50.518;6.732;2023-12-22T00:46:10;8.23;;;3.03;;
74344;SDS011;62776;50.518;6.732;2023-12-22T00:48:57;11.98;;;3.72;;
74344;SDS011;62776;50.518;6.732;2023-12-22T00:51:44;3.63;;;2.00;;
74344;SDS011;62776;50.518;6.732;2023-12-22T00:54:30;7.28;;;2.72;;
74344;SDS011;62776;50.518;6.732;2023-12-22T00:57:16;5.22;;;2.55;;
74344;SDS011;62776;50.518;6.732;2023-12-22T01:00:03;3.95;;;2.25;;
74344;SDS011;62776;50.518;6.732;2023-12-22T01:02:53;5.50;;;2.67;;
74344;SDS011;62776;50.518;6.732;2023-12-22T01:05:39;4.88;;;2.15;;
74344;SDS011;62776;50.518;6.732;2023-12-22T01:08:28;3.65;;;2.05;;
74344;SDS011;62776;50.518;6.732;2023-12-22T01:11:16;2.15;;;1.33;;
74344;SDS011;62776;50.518;6.732;2023-12-22T01:14:05;4.63;;;2.40;;
74344;SDS011;62776;50.518;6.732;2023-12-22T01:16:52;4.07;;;1.40;;
74344;SDS011;62776;50.518;6.732;2023-12-22T01:19:45;3.35;;;1.63;;
74344;SDS011;62776;50.518;6.732;2023-12-22T01:22:31;3.63;;;1.90;;
74344;SDS011;62776;50.518;6.732;2023-12-22T01:25:19;5.80;;;1.77;;
74344;SDS011;62776;50.518;6.732;2023-12-22T01:28:05;5.22;;;1.83;;
74344;SDS011;62776;50.518;6.732;2023-12-22T01:30:55;3.40;;;2.28;;
74344;SDS011;62776;50.518;6.732;2023-12-22T01:33:41;2.83;;;1.95;;
74344;SDS011;62776;50.518;6.732;2023-12-22T01:36:27;5.93;;;1.67;;
74344;SDS011;62776;50.518;6.732;2023-12-22T01:39:13;3.40;;;1.90;;
74344;SDS011;62776;50.518;6.732;2023-12-22T01:42:00;4.10;;;2.58;;
74344;SDS011;62776;50.518;6.732;2023-12-22T01:44:46;3.28;;;1.73;;
74344;SDS011;62776;50.518;6.732;2023-12-22T01:47:32;3.17;;;1.63;;
74344;SDS011;62776;50.518;6.732;2023-12-22T01:50:20;2.83;;;1.60;;
74344;SDS011;62776;50.518;6.732;2023-12-22T01:53:19;3.92;;;1.60;;
74344;SDS011;62776;50.518;6.732;2023-12-22T01:56:06;3.38;;;2.35;;
74344;SDS011;62776;50.518;6.732;2023-12-22T01:58:55;3.35;;;1.98;;
74344;SDS011;62776;50.518;6.732;2023-12-22T02:01:44;3.58;;;2.28;;
74344;SDS011;62776;50.518;6.732;2023-12-22T02:04:31;3.72;;;2.58;;
74344;SDS011;62776;50.518;6.732;2023-12-22T02:07:20;2.45;;;1.30;;
74344;SDS011;62776;50.518;6.732;2023-12-22T02:10:10;3.55;;;1.38;;
74344;SDS011;62776;50.518;6.732;2023-12-22T02:12:56;2.88;;;1.30;;
74344;SDS011;62776;50.518;6.732;2023-12-22T02:15:44;2.78;;;1.20;;
74344;SDS011;62776;50.518;6.732;2023-12-22T02:18:36;4.05;;;1.40;;
74344;SDS011;62776;50.518;6.732;2023-12-22T02:21:26;1.70;;;1.40;;
74344;SDS011;62776;50.518;6.732;2023-12-22T02:24:14;3.08;;;1.10;;
74344;SDS011;62776;50.518;6.732;2023-12-22T02:27:20;1.98;;;1.65;;
74344;SDS011;62776;50.518;6.732;2023-12-22T02:33:41;2.05;;;1.30;;
74344;SDS011;62776;50.518;6.732;2023-12-22T02:36:29;4.53;;;1.20;;
74344;SDS011;62776;50.518;6.732;2023-12-22T02:39:20;2.17;;;1.13;;
74344;SDS011;62776;50.518;6.732;2023-12-22T02:42:08;3.13;;;1.40;;
74344;SDS011;62776;50.518;6.732;2023-12-22T02:44:56;3.33;;;1.77;;
74344;SDS011;62776;50.518;6.732;2023-12-22T02:47:43;2.10;;;1.50;;
74344;SDS011;62776;50.518;6.732;2023-12-22T02:50:30;2.47;;;1.80;;
74344;SDS011;62776;50.518;6.732;2023-12-22T02:53:16;3.15;;;2.10;;
74344;SDS011;62776;50.518;6.732;2023-12-22T02:56:02;3.22;;;1.67;;
74344;SDS011;62776;50.518;6.732;2023-12-22T02:58:49;5.55;;;3.00;;
74344;SDS011;62776;50.518;6.732;2023-12-22T03:01:35;4.13;;;1.98;;
74344;SDS011;62776;50.518;6.732;2023-12-22T03:04:21;5.97;;;2.90;;
74344;SDS011;62776;50.518;6.732;2023-12-22T03:07:07;7.65;;;2.83;;
74344;SDS011;62776;50.518;6.732;2023-12-22T03:09:54;5.78;;;2.60;;
74344;SDS011;62776;50.518;6.732;2023-12-22T03:12:40;7.22;;;3.22;;
74344;SDS011;62776;50.518;6.732;2023-12-22T03:15:26;6.03;;;2.38;;
74344;SDS011;62776;50.518;6.732;2023-12-22T03:18:12;5.25;;;2.47;;
74344;SDS011;62776;50.518;6.732;2023-12-22T03:21:00;8.25;;;2.30;;
74344;SDS011;62776;50.518;6.732;2023-12-22T03:23:46;4.07;;;2.08;;
74344;SDS011;62776;50.518;6.732;2023-12-22T03:26:32;6.10;;;2.97;;
74344;SDS011;62776;50.518;6.732;2023-12-22T03:29:18;6.80;;;3.00;;
74344;SDS011;62776;50.518;6.732;2023-12-22T03:32:05;4.68;;;2.85;;
74344;SDS011;62776;50.518;6.732;2023-12-22T03:34:51;7.28;;;2.72;;
74344;SDS011;62776;50.518;6.732;2023-12-22T03:37:38;5.07;;;2.05;;
74344;SDS011;62776;50.518;6.732;2023-12-22T03:40:24;4.13;;;1.83;;
74344;SDS011;62776;50.518;6.732;2023-12-22T03:43:11;3.97;;;2.00;;
74344;SDS011;62776;50.518;6.732;2023-12-22T03:45:57;1.42;;;1.13;;
74344;SDS011;62776;50.518;6.732;2023-12-22T03:48:43;1.23;;;0.98;;
74344;SDS011;62776;50.518;6.732;2023-12-22T03:51:32;1.45;;;1.17;;
74344;SDS011;62776;50.518;6.732;2023-12-22T03:54:21;2.28;;;1.10;;
74344;SDS011;62776;50.518;6.732;2023-12-22T03:57:07;0.98;;;0.80;;
74344;SDS011;62776;50.518;6.732;2023-12-22T03:59:56;2.05;;;1.08;;
74344;SDS011;62776;50.518;6.732;2023-12-22T04:02:43;2.15;;;1.10;;
74344;SDS011;62776;50.518;6.732;2023-12-22T04:05:29;1.20;;;1.10;;
74344;SDS011;62776;50.518;6.732;2023-12-22T04:08:15;5.50;;;1.52;;
74344;SDS011;62776;50.518;6.732;2023-12-22T04:11:02;3.50;;;1.75;;
74344;SDS011;62776;50.518;6.732;2023-12-22T04:13:48;4.45;;;2.10;;
74344;SDS011;62776;50.518;6.732;2023-12-22T04:16:36;4.03;;;1.95;;
74344;SDS011;62776;50.518;6.732;2023-12-22T04:19:23;5.20;;;2.75;;
74344;SDS011;62776;50.518;6.732;2023-12-22T04:22:09;8.30;;;3.17;;
74344;SDS011;62776;50.518;6.732;2023-12-22T04:24:55;6.25;;;2.65;;
74344;SDS011;62776;50.518;6.732;2023-12-22T04:27:51;3.95;;;2.22;;
74344;SDS011;62776;50.518;6.732;2023-12-22T04:30:37;7.90;;;2.70;;
74344;SDS011;62776;50.518;6.732;2023-12-22T04:33:23;4.18;;;2.25;;
74344;SDS011;62776;50.518;6.732;2023-12-22T04:36:09;9.30;;;2.65;;
74344;SDS011;62776;50.518;6.732;2023-12-22T04:38:55;5.18;;;2.40;;
74344;SDS011;62776;50.518;6.732;2023-12-22T04:41:42;12.70;;;2.85;;
74344;SDS011;62776;50.518;6.732;2023-12-22T04:44:28;5.93;;;2.22;;
74344;SDS011;62776;50.518;6.732;2023-12-22T04:47:14;7.65;;;3.13;;
74344;SDS011;62776;50.518;6.732;2023-12-22T04:50:01;6.00;;;2.33;;
74344;SDS011;62776;50.518;6.732;2023-12-22T04:52:47;4.32;;;2.10;;
74344;SDS011;62776;50.518;6.732;2023-12-22T04:55:33;3.00;;;2.13;;
74344;SDS011;62776;50.518;6.732;2023-12-22T04:58:22;2.78;;;1.95;;
74344;SDS011;62776;50.518;6.732;2023-12-22T05:01:09;2.97;;;2.05;;
74344;SDS011;62776;50.518;6.732;2023-12-22T05:03:55;5.60;;;2.47;;
74344;SDS011;62776;50.518;6.732;2023-12-22T05:06:41;4.22;;;2.72;;
74344;SDS011;62776;50.518;6.732;2023-12-22T05:09:28;3.38;;;1.63;;
74344;SDS011;62776;50.518;6.732;2023-12-22T05:12:14;7.47;;;2.75;;
74344;SDS011;62776;50.518;6.732;2023-12-22T05:15:00;5.95;;;3.17;;
74344;SDS011;62776;50.518;6.732;2023-12-22T05:17:47;5.80;;;2.70;;
74344;SDS011;62776;50.518;6.732;2023-12-22T05:20:33;5.00;;;1.90;;
74344;SDS011;62776;50.518;6.732;2023-12-22T05:23:19;4.90;;;2.45;;
74344;SDS011;62776;50.518;6.732;2023-12-22T05:26:05;6.53;;;2.50;;
74344;SDS011;62776;50.518;6.732;2023-12-22T05:28:52;3.60;;;1.90;;
74344;SDS011;62776;50.518;6.732;2023-12-22T05:31:38;4.95;;;2.22;;
74344;SDS011;62776;50.518;6.732;2023-12-22T05:34:25;5.22;;;2.28;;
74344;SDS011;62776;50.518;6.732;2023-12-22T05:37:11;3.60;;;1.90;;
74344;SDS011;62776;50.518;6.732;2023-12-22T05:39:57;4.50;;;2.08;;
74344;SDS011;62776;50.518;6.732;2023-12-22T05:42:43;4.00;;;2.08;;
74344;SDS011;62776;50.518;6.732;2023-12-22T05:45:29;5.45;;;2.95;;
74344;SDS011;62776;50.518;6.732;2023-12-22T05:48:18;5.47;;;2.10;;
74344;SDS011;62776;50.518;6.732;2023-12-22T05:51:07;4.90;;;1.98;;
74344;SDS011;62776;50.518;6.732;2023-12-22T05:53:58;3.63;;;1.90;;
74344;SDS011;62776;50.518;6.732;2023-12-22T05:56:46;5.85;;;2.75;;
74344;SDS011;62776;50.518;6.732;2023-12-22T05:59:33;7.32;;;2.58;;
74344;SDS011;62776;50.518;6.732;2023-12-22T06:02:22;2.78;;;1.60;;
74344;SDS011;62776;50.518;6.732;2023-12-22T06:05:08;3.42;;;1.60;;
74344;SDS011;62776;50.518;6.732;2023-12-22T06:07:54;1.80;;;1.70;;
74344;SDS011;62776;50.518;6.732;2023-12-22T06:10:40;2.70;;;1.60;;
74344;SDS011;62776;50.518;6.732;2023-12-22T06:13:26;3.38;;;1.15;;
74344;SDS011;62776;50.518;6.732;2023-12-22T06:16:13;7.00;;;1.58;;
74344;SDS011;62776;50.518;6.732;2023-12-22T06:19:00;1.95;;;1.30;;
74344;SDS011;62776;50.518;6.732;2023-12-22T06:21:46;2.60;;;1.63;;
74344;SDS011;62776;50.518;6.732;2023-12-22T06:24:34;3.63;;;1.45;;
74344;SDS011;62776;50.518;6.732;2023-12-22T06:27:21;2.35;;;1.33;;
74344;SDS011;62776;50.518;6.732;2023-12-22T06:30:07;3.03;;;1.48;;
74344;SDS011;62776;50.518;6.732;2023-12-22T06:32:54;5.07;;;2.13;;
74344;SDS011;62776;50.518;6.732;2023-12-22T06:35:40;4.03;;;1.58;;
74344;SDS011;62776;50.518;6.732;2023-12-22T06:38:28;4.70;;;1.40;;
74344;SDS011;62776;50.518;6.732;2023-12-22T06:41:18;4.75;;;2.50;;
74344;SDS011;62776;50.518;6.732;2023-12-22T06:44:10;3.17;;;1.90;;
74344;SDS011;62776;50.518;6.732;2023-12-22T06:46:56;5.95;;;2.05;;
74344;SDS011;62776;50.518;6.732;2023-12-22T06:49:43;4.07;;;2.40;;
74344;SDS011;62776;50.518;6.732;2023-12-22T06:52:29;4.13;;;2.50;;
74344;SDS011;62776;50.518;6.732;2023-12-22T06:55:15;5.85;;;2.42;;
74344;SDS011;62776;50.518;6.732;2023-12-22T06:58:02;3.75;;;1.77;;
74344;SDS011;62776;50.518;6.732;2023-12-22T07:00:49;2.03;;;1.60;;
74344;SDS011;62776;50.518;6.732;2023-12-22T07:03:37;2.80;;;1.67;;
74344;SDS011;62776;50.518;6.732;2023-12-22T07:06:24;3.78;;;1.95;;
74344;SDS011;62776;50.518;6.732;2023-12-22T07:12:02;5.50;;;1.77;;
74344;SDS011;62776;50.518;6.732;2023-12-22T07:14:48;5.07;;;3.28;;
74344;SDS011;62776;50.518;6.732;2023-12-22T07:17:35;7.68;;;2.25;;
74344;SDS011;62776;50.518;6.732;2023-12-22T07:20:21;6.07;;;2.60;;
74344;SDS011;62776;50.518;6.732;2023-12-22T07:23:09;7.70;;;3.00;;
74344;SDS011;62776;50.518;6.732;2023-12-22T07:25:56;6.97;;;3.30;;
74344;SDS011;62776;50.518;6.732;2023-12-22T07:28:43;10.35;;;3.40;;
74344;SDS011;62776;50.518;6.732;2023-12-22T07:31:29;4.13;;;2.60;;
74344;SDS011;62776;50.518;6.732;2023-12-22T07:34:16;5.65;;;2.90;;
74344;SDS011;62776;50.518;6.732;2023-12-22T07:37:03;7.65;;;3.35;;
74344;SDS011;62776;50.518;6.732;2023-12-22T07:39:53;7.72;;;3.30;;
74344;SDS011;62776;50.518;6.732;2023-12-22T07:42:39;8.43;;;3.67;;
74344;SDS011;62776;50.518;6.732;2023-12-22T07:45:28;6.07;;;3.00;;
74344;SDS011;62776;50.518;6.732;2023-12-22T07:48:14;8.02;;;3.20;;
74344;SDS011;62776;50.518;6.732;2023-12-22T07:51:00;7.43;;;3.35;;
74344;SDS011;62776;50.518;6.732;2023-12-22T07:53:47;6.78;;;2.58;;
74344;SDS011;62776;50.518;6.732;2023-12-22T07:56:33;7.57;;;2.70;;
74344;SDS011;62776;50.518;6.732;2023-12-22T07:59:19;5.65;;;2.47;;
74344;SDS011;62776;50.518;6.732;2023-12-22T08:02:05;7.30;;;3.45;;
74344;SDS011;62776;50.518;6.732;2023-12-22T08:04:51;4.45;;;2.72;;
74344;SDS011;62776;50.518;6.732;2023-12-22T08:07:38;5.65;;;2.80;;
74344;SDS011;62776;50.518;6.732;2023-12-22T08:10:24;6.78;;;2.97;;
74344;SDS011;62776;50.518;6.732;2023-12-22T08:13:12;5.45;;;2.25;;
74344;SDS011;62776;50.518;6.732;2023-12-22T08:15:58;5.95;;;3.40;;
74344;SDS011;62776;50.518;6.732;2023-12-22T08:18:44;8.57;;;2.90;;
74344;SDS011;62776;50.518;6.732;2023-12-22T08:21:30;5.40;;;2.92;;
74344;SDS011;62776;50.518;6.732;2023-12-22T08:24:17;5.07;;;2.85;;
74344;SDS011;62776;50.518;6.732;2023-12-22T08:27:03;6.22;;;2.40;;
74344;SDS011;62776;50.518;6.732;2023-12-22T08:29:50;3.08;;;1.92;;
74344;SDS011;62776;50.518;6.732;2023-12-22T08:32:38;8.05;;;3.17;;
74344;SDS011;62776;50.518;6.732;2023-12-22T08:35:27;5.47;;;2.60;;
74344;SDS011;62776;50.518;6.732;2023-12-22T08:38:16;3.67;;;2.03;;
74344;SDS011;62776;50.518;6.732;2023-12-22T08:41:02;6.15;;;3.15;;
74344;SDS011;62776;50.518;6.732;2023-12-22T08:43:48;3.72;;;2.58;;
74344;SDS011;62776;50.518;6.732;2023-12-22T08:46:35;4.00;;;2.38;;
74344;SDS011;62776;50.518;6.732;2023-12-22T08:49:21;5.57;;;3.13;;
74344;SDS011;62776;50.518;6.732;2023-12-22T08:52:07;5.63;;;2.50;;
74344;SDS011;62776;50.518;6.732;2023-12-22T08:54:54;2.88;;;2.28;;
74344;SDS011;62776;50.518;6.732;2023-12-22T08:57:40;3.60;;;2.30;;
74344;SDS011;62776;50.518;6.732;2023-12-22T09:00:26;4.53;;;2.97;;
74344;SDS011;62776;50.518;6.732;2023-12-22T09:03:12;3.78;;;1.98;;
74344;SDS011;62776;50.518;6.732;2023-12-22T09:05:58;3.85;;;2.67;;
74344;SDS011;62776;50.518;6.732;2023-12-22T09:08:47;4.55;;;2.53;;
74344;SDS011;62776;50.518;6.732;2023-12-22T09:11:34;4.15;;;2.40;;
74344;SDS011;62776;50.518;6.732;2023-12-22T09:14:21;3.55;;;2.00;;
74344;SDS011;62776;50.518;6.732;2023-12-22T09:17:07;3.30;;;1.77;;
74344;SDS011;62776;50.518;6.732;2023-12-22T09:19:53;3.30;;;1.85;;
74344;SDS011;62776;50.518;6.732;2023-12-22T09:22:40;2.13;;;1.50;;
74344;SDS011;62776;50.518;6.732;2023-12-22T09:25:26;3.55;;;1.63;;
74344;SDS011;62776;50.518;6.732;2023-12-22T09:28:12;2.95;;;1.50;;
74344;SDS011;62776;50.518;6.732;2023-12-22T09:30:59;2.45;;;1.50;;
74344;SDS011;62776;50.518;6.732;2023-12-22T09:33:45;2.17;;;1.20;;
74344;SDS011;62776;50.518;6.732;2023-12-22T09:36:31;3.75;;;1.73;;
74344;SDS011;62776;50.518;6.732;2023-12-22T09:39:17;2.00;;;1.45;;
74344;SDS011;62776;50.518;6.732;2023-12-22T09:42:04;2.75;;;1.70;;
74344;SDS011;62776;50.518;6.732;2023-12-22T09:44:51;3.30;;;1.10;;
74344;SDS011;62776;50.518;6.732;2023-12-22T09:47:41;1.88;;;1.02;;
74344;SDS011;62776;50.518;6.732;2023-12-22T09:50:29;3.40;;;1.52;;
74344;SDS011;62776;50.518;6.732;2023-12-22T09:53:16;1.95;;;1.35;;
74344;SDS011;62776;50.518;6.732;2023-12-22T09:56:04;1.55;;;1.10;;
74344;SDS011;62776;50.518;6.732;2023-12-22T09:58:51;1.80;;;0.93;;
74344;SDS011;62776;50.518;6.732;2023-12-22T10:01:44;0.93;;;0.90;;
74344;SDS011;62776;50.518;6.732;2023-12-22T10:04:32;1.95;;;1.10;;
74344;SDS011;62776;50.518;6.732;2023-12-22T10:07:18;1.10;;;0.90;;
74344;SDS011;62776;50.518;6.732;2023-12-22T10:10:07;1.13;;;1.02;;
74344;SDS011;62776;50.518;6.732;2023-12-22T10:12:54;0.95;;;0.90;;
74344;SDS011;62776;50.518;6.732;2023-12-22T10:15:41;2.35;;;0.90;;
74344;SDS011;62776;50.518;6.732;2023-12-22T10:18:28;1.10;;;1.00;;
74344;SDS011;62776;50.518;6.732;2023-12-22T10:21:14;0.93;;;0.77;;
74344;SDS011;62776;50.518;6.732;2023-12-22T10:24:01;0.95;;;0.95;;
74344;SDS011;62776;50.518;6.732;2023-12-22T10:26:47;1.10;;;0.82;;
74344;SDS011;62776;50.518;6.732;2023-12-22T10:29:33;1.85;;;0.98;;
74344;SDS011;62776;50.518;6.732;2023-12-22T10:32:20;0.50;;;0.50;;
74344;SDS011;62776;50.518;6.732;2023-12-22T10:35:07;1.30;;;0.82;;
74344;SDS011;62776;50.518;6.732;2023-12-22T10:37:54;0.70;;;0.70;;
74344;SDS011;62776;50.518;6.732;2023-12-22T10:40:41;1.25;;;0.82;;
74344;SDS011;62776;50.518;6.732;2023-12-22T10:43:27;0.50;;;0.50;;
74344;SDS011;62776;50.518;6.732;2023-12-22T10:46:14;0.57;;;0.57;;
74344;SDS011;62776;50.518;6.732;2023-12-22T10:49:01;0.73;;;0.70;;
74344;SDS011;62776;50.518;6.732;2023-12-22T10:51:49;0.82;;;0.50;;
74344;SDS011;62776;50.518;6.732;2023-12-22T10:54:37;0.75;;;0.55;;
74344;SDS011;62776;50.518;6.732;2023-12-22T10:57:23;0.60;;;0.60;;
74344;SDS011;62776;50.518;6.732;2023-12-22T11:00:09;0.60;;;0.60;;
74344;SDS011;62776;50.518;6.732;2023-12-22T11:02:59;0.52;;;0.52;;
74344;SDS011;62776;50.518;6.732;2023-12-22T11:05:51;0.50;;;0.50;;
74344;SDS011;62776;50.518;6.732;2023-12-22T11:08:43;0.57;;;0.47;;
74344;SDS011;62776;50.518;6.732;2023-12-22T11:11:35;2.30;;;0.65;;
74344;SDS011;62776;50.518;6.732;2023-12-22T11:14:23;0.40;;;0.40;;
74344;SDS011;62776;50.518;6.732;2023-12-22T11:17:11;1.13;;;0.70;;
74344;SDS011;62776;50.518;6.732;2023-12-22T11:19:59;0.43;;;0.43;;
74344;SDS011;62776;50.518;6.732;2023-12-22T11:22:47;0.50;;;0.50;;
74344;SDS011;62776;50.518;6.732;2023-12-22T11:25:36;0.57;;;0.57;;
74344;SDS011;62776;50.518;6.732;2023-12-22T11:28:23;0.65;;;0.65;;
74344;SDS011;62776;50.518;6.732;2023-12-22T11:31:10;0.52;;;0.52;;
74344;SDS011;62776;50.518;6.732;2023-12-22T11:33:56;0.40;;;0.40;;
74344;SDS011;62776;50.518;6.732;2023-12-22T11:36:45;0.82;;;0.80;;
74344;SDS011;62776;50.518;6.732;2023-12-22T11:39:32;0.60;;;0.60;;
74344;SDS011;62776;50.518;6.732;2023-12-22T11:42:19;0.57;;;0.57;;
74344;SDS011;62776;50.518;6.732;2023-12-22T11:45:10;0.50;;;0.50;;
74344;SDS011;62776;50.518;6.732;2023-12-22T11:48:04;0.50;;;0.50;;
74344;SDS011;62776;50.518;6.732;2023-12-22T11:50:54;0.60;;;0.60;;
74344;SDS011;62776;50.518;6.732;2023-12-22T11:53:41;0.43;;;0.43;;
74344;SDS011;62776;50.518;6.732;2023-12-22T11:56:28;1.95;;;0.70;;
74344;SDS011;62776;50.518;6.732;2023-12-22T11:59:16;2.83;;;1.05;;
74344;SDS011;62776;50.518;6.732;2023-12-22T12:02:02;0.60;;;0.60;;
74344;SDS011;62776;50.518;6.732;2023-12-22T12:04:53;0.88;;;0.70;;
74344;SDS011;62776;50.518;6.732;2023-12-22T12:07:43;0.63;;;0.63;;
74344;SDS011;62776;50.518;6.732;2023-12-22T12:13:23;0.70;;;0.70;;
74344;SDS011;62776;50.518;6.732;2023-12-22T12:16:11;1.17;;;0.73;;
74344;SDS011;62776;50.518;6.732;2023-12-22T12:18:58;0.75;;;0.75;;
74344;SDS011;62776;50.518;6.732;2023-12-22T12:21:45;1.60;;;0.90;;
74344;SDS011;62776;50.518;6.732;2023-12-22T12:24:32;1.08;;;0.80;;
74344;SDS011;62776;50.518;6.732;2023-12-22T12:27:20;2.30;;;0.73;;
74344;SDS011;62776;50.518;6.732;2023-12-22T12:30:09;0.80;;;0.80;;
74344;SDS011;62776;50.518;6.732;2023-12-22T12:33:16;0.85;;;0.80;;
74344;SDS011;62776;50.518;6.732;2023-12-22T12:36:03;0.93;;;0.80;;
74344;SDS011;62776;50.518;6.732;2023-12-22T12:41:47;0.70;;;0.70;;
74344;SDS011;62776;50.518;6.732;2023-12-22T12:44:38;0.87;;;0.87;;
74344;SDS011;62776;50.518;6.732;2023-12-22T12:47:29;0.70;;;0.70;;
74344;SDS011;62776;50.518;6.732;2023-12-22T12:50:21;0.82;;;0.65;;
74344;SDS011;62776;50.518;6.732;2023-12-22T12:53:08;1.33;;;0.80;;
74344;SDS011;62776;50.518;6.732;2023-12-22T12:55:57;1.00;;;0.90;;
74344;SDS011;62776;50.518;6.732;2023-12-22T12:58:44;1.52;;;0.70;;
74344;SDS011;62776;50.518;6.732;2023-12-22T13:01:30;0.98;;;0.90;;
74344;SDS011;62776;50.518;6.732;2023-12-22T13:04:17;0.73;;;0.70;;
74344;SDS011;62776;50.518;6.732;2023-12-22T13:07:03;0.60;;;0.60;;
74344;SDS011;62776;50.518;6.732;2023-12-22T13:09:49;0.60;;;0.60;;
74344;SDS011;62776;50.518;6.732;2023-12-22T13:12:38;0.55;;;0.55;;
74344;SDS011;62776;50.518;6.732;2023-12-22T13:15:25;0.50;;;0.50;;
74344;SDS011;62776;50.518;6.732;2023-12-22T13:18:12;0.95;;;0.77;;
74344;SDS011;62776;50.518;6.732;2023-12-22T13:20:58;0.77;;;0.57;;
74344;SDS011;62776;50.518;6.732;2023-12-22T13:23:44;0.50;;;0.50;;
74344;SDS011;62776;50.518;6.732;2023-12-22T13:26:34;0.70;;;0.60;;
74344;SDS011;62776;50.518;6.732;2023-12-22T13:32:14;1.55;;;0.68;;
74344;SDS011;62776;50.518;6.732;2023-12-22T13:35:01;0.77;;;0.60;;
74344;SDS011;62776;50.518;6.732;2023-12-22T13:37:48;0.77;;;0.70;;
74344;SDS011;62776;50.518;6.732;2023-12-22T13:40:35;0.45;;;0.45;;
74344;SDS011;62776;50.518;6.732;2023-12-22T13:43:27;1.35;;;0.90;;
74344;SDS011;62776;50.518;6.732;2023-12-22T13:46:16;0.80;;;0.80;;
74344;SDS011;62776;50.518;6.732;2023-12-22T13:49:03;0.68;;;0.68;;
74344;SDS011;62776;50.518;6.732;2023-12-22T13:51:52;0.60;;;0.60;;
74344;SDS011;62776;50.518;6.732;2023-12-22T13:54:39;0.98;;;0.63;;
74344;SDS011;62776;50.518;6.732;2023-12-22T13:57:25;0.57;;;0.57;;
74344;SDS011;62776;50.518;6.732;2023-12-22T14:03:04;0.80;;;0.80;;
74344;SDS011;62776;50.518;6.732;2023-12-22T14:05:52;1.35;;;0.90;;
74344;SDS011;62776;50.518;6.732;2023-12-22T14:08:43;0.93;;;0.80;;
74344;SDS011;62776;50.518;6.732;2023-12-22T14:11:29;0.77;;;0.77;;
74344;SDS011;62776;50.518;6.732;2023-12-22T14:14:16;0.82;;;0.50;;
74344;SDS011;62776;50.518;6.732;2023-12-22T14:17:03;0.93;;;0.93;;
74344;SDS011;62776;50.518;6.732;2023-12-22T14:19:49;1.65;;;0.65;;
74344;SDS011;62776;50.518;6.732;2023-12-22T14:22:36;1.27;;;1.05;;
74344;SDS011;62776;50.518;6.732;2023-12-22T14:25:22;1.23;;;0.70;;
74344;SDS011;62776;50.518;6.732;2023-12-22T14:28:11;0.60;;;0.60;;
74344;SDS011;62776;50.518;6.732;2023-12-22T14:31:00;1.05;;;0.73;;
74344;SDS011;62776;50.518;6.732;2023-12-22T14:33:46;1.27;;;0.60;;
74344;SDS011;62776;50.518;6.732;2023-12-22T14:36:33;0.60;;;0.50;;
74344;SDS011;62776;50.518;6.732;2023-12-22T14:39:19;1.30;;;1.05;;
74344;SDS011;62776;50.518;6.732;2023-12-22T14:42:05;1.50;;;0.80;;
74344;SDS011;62776;50.518;6.732;2023-12-22T14:44:51;1.38;;;0.70;;
74344;SDS011;62776;50.518;6.732;2023-12-22T14:47:39;0.68;;;0.60;;
74344;SDS011;62776;50.518;6.732;2023-12-22T14:50:25;0.63;;;0.63;;
74344;SDS011;62776;50.518;6.732;2023-12-22T14:53:11;1.73;;;0.90;;
74344;SDS011;62776;50.518;6.732;2023-12-22T14:55:57;0.80;;;0.70;;
74344;SDS011;62776;50.518;6.732;2023-12-22T14:58:44;0.55;;;0.50;;
74344;SDS011;62776;50.518;6.732;2023-12-22T15:01:30;0.60;;;0.60;;
74344;SDS011;62776;50.518;6.732;2023-12-22T15:04:18;1.55;;;0.65;;
74344;SDS011;62776;50.518;6.732;2023-12-22T15:07:05;0.93;;;0.60;;
74344;SDS011;62776;50.518;6.732;2023-12-22T15:09:52;1.55;;;0.80;;
74344;SDS011;62776;50.518;6.732;2023-12-22T15:12:38;0.70;;;0.70;;
74344;SDS011;62776;50.518;6.732;2023-12-22T15:15:27;2.83;;;0.85;;
74344;SDS011;62776;50.518;6.732;2023-12-22T15:18:13;0.77;;;0.60;;
74344;SDS011;62776;50.518;6.732;2023-12-22T15:20:59;0.70;;;0.70;;
74344;SDS011;62776;50.518;6.732;2023-12-22T15:23:46;1.45;;;1.25;;
74344;SDS011;62776;50.518;6.732;2023-12-22T15:26:32;1.55;;;0.93;;
74344;SDS011;62776;50.518;6.732;2023-12-22T15:29:21;1.05;;;0.93;;
74344;SDS011;62776;50.518;6.732;2023-12-22T15:32:07;0.85;;;0.70;;
74344;SDS011;62776;50.518;6.732;2023-12-22T15:34:54;0.60;;;0.60;;
74344;SDS011;62776;50.518;6.732;2023-12-22T15:37:40;1.30;;;1.00;;
74344;SDS011;62776;50.518;6.732;2023-12-22T15:40:27;0.52;;;0.52;;
74344;SDS011;62776;50.518;6.732;2023-12-22T15:43:14;0.70;;;0.70;;
74344;SDS011;62776;50.518;6.732;2023-12-22T15:46:06;1.50;;;0.98;;
74344;SDS011;62776;50.518;6.732;2023-12-22T15:48:56;1.85;;;1.02;;
74344;SDS011;62776;50.518;6.732;2023-12-22T15:51:43;1.45;;;0.77;;
74344;SDS011;62776;50.518;6.732;2023-12-22T15:54:29;1.42;;;0.88;;
74344;SDS011;62776;50.518;6.732;2023-12-22T15:57:15;0.98;;;0.70;;
74344;SDS011;62776;50.518;6.732;2023-12-22T16:00:02;0.93;;;0.80;;
74344;SDS011;62776;50.518;6.732;2023-12-22T16:02:49;1.00;;;0.80;;
74344;SDS011;62776;50.518;6.732;2023-12-22T16:05:35;2.60;;;0.93;;
74344;SDS011;62776;50.518;6.732;2023-12-22T16:08:22;1.77;;;0.90;;
74344;SDS011;62776;50.518;6.732;2023-12-22T16:11:08;1.42;;;0.70;;
74344;SDS011;62776;50.518;6.732;2023-12-22T16:13:54;1.95;;;0.90;;
74344;SDS011;62776;50.518;6.732;2023-12-22T16:16:42;2.20;;;1.00;;
74344;SDS011;62776;50.518;6.732;2023-12-22T16:19:29;0.70;;;0.70;;
74344;SDS011;62776;50.518;6.732;2023-12-22T16:22:16;0.60;;;0.60;;
74344;SDS011;62776;50.518;6.732;2023-12-22T16:25:02;2.20;;;0.63;;
74344;SDS011;62776;50.518;6.732;2023-12-22T16:27:48;0.60;;;0.60;;
74344;SDS011;62776;50.518;6.732;2023-12-22T16:30:35;1.75;;;0.60;;
74344;SDS011;62776;50.518;6.732;2023-12-22T16:33:21;0.65;;;0.65;;
74344;SDS011;62776;50.518;6.732;2023-12-22T16:36:08;0.90;;;0.80;;
74344;SDS011;62776;50.518;6.732;2023-12-22T16:38:56;4.82;;;1.40;;
74344;SDS011;62776;50.518;6.732;2023-12-22T16:41:42;0.70;;;0.70;;
74344;SDS011;62776;50.518;6.732;2023-12-22T16:44:29;0.60;;;0.60;;
74344;SDS011;62776;50.518;6.732;2023-12-22T16:47:15;0.55;;;0.50;;
74344;SDS011;62776;50.518;6.732;2023-12-22T16:50:01;1.33;;;1.00;;
74344;SDS011;62776;50.518;6.732;2023-12-22T16:52:47;0.70;;;0.70;;
74344;SDS011;62776;50.518;6.732;2023-12-22T16:55:35;1.02;;;0.77;;
74344;SDS011;62776;50.518;6.732;2023-12-22T16:58:21;0.80;;;0.80;;
74344;SDS011;62776;50.518;6.732;2023-12-22T17:01:07;0.73;;;0.73;;
74344;SDS011;62776;50.518;6.732;2023-12-22T17:03:57;0.90;;;0.80;;
74344;SDS011;62776;50.518;6.732;2023-12-22T17:06:47;0.68;;;0.68;;